sensor_id;sensor_type;location;lat;lon;timestamp;P1;durP1;ratioP1;P2;durP2;ratioP2
14858;SDS011;7521;51.700;6.874;2023-05-17T00:02:55;9.30;;;3.63;;
14858;SDS011;7521;51.700;6.874;2023-05-17T00:06:00;7.93;;;3.50;;
14858;SDS011;7521;51.700;6.874;2023-05-17T00:09:05;6.47;;;3.63;;
14858;SDS011;7521;51.700;6.874;2023-05-17T00:12:11;11.47;;;3.70;;
14858;SDS011;7521;51.700;6.874;2023-05-17T00:15:16;9.53;;;4.47;;
14858;SDS011;7521;51.700;6.874;2023-05-17T00:18:22;9.07;;;4.47;;
14858;SDS011;7521;51.700;6.874;2023-05-17T00:21:27;8.57;;;4.43;;
14858;SDS011;7521;51.700;6.874;2023-05-17T00:24:32;13.10;;;4.67;;
14858;SDS011;7521;51.700;6.874;2023-05-17T00:27:37;5.95;;;3.97;;
14858;SDS011;7521;51.700;6.874;2023-05-17T00:30:43;7.43;;;4.00;;
14858;SDS011;7521;51.700;6.874;2023-05-17T00:33:48;6.40;;;3.90;;
14858;SDS011;7521;51.700;6.874;2023-05-17T00:36:53;11.30;;;4.40;;
14858;SDS011;7521;51.700;6.874;2023-05-17T00:39:58;7.00;;;3.90;;
14858;SDS011;7521;51.700;6.874;2023-05-17T00:43:03;8.05;;;3.88;;
14858;SDS011;7521;51.700;6.874;2023-05-17T00:46:08;10.63;;;4.40;;
14858;SDS011;7521;51.700;6.874;2023-05-17T00:49:14;10.50;;;4.93;;
14858;SDS011;7521;51.700;6.874;2023-05-17T00:52:19;11.37;;;4.73;;
14858;SDS011;7521;51.700;6.874;2023-05-17T00:55:25;11.85;;;4.50;;
14858;SDS011;7521;51.700;6.874;2023-05-17T00:58:30;15.87;;;4.90;;
14858;SDS011;7521;51.700;6.874;2023-05-17T01:01:35;8.30;;;4.23;;
14858;SDS011;7521;51.700;6.874;2023-05-17T01:04:41;10.07;;;5.00;;
14858;SDS011;7521;51.700;6.874;2023-05-17T01:07:47;8.87;;;4.53;;
14858;SDS011;7521;51.700;6.874;2023-05-17T01:14:30;8.27;;;4.10;;
14858;SDS011;7521;51.700;6.874;2023-05-17T01:17:46;11.43;;;4.17;;
14858;SDS011;7521;51.700;6.874;2023-05-17T01:20:53;7.80;;;4.53;;
14858;SDS011;7521;51.700;6.874;2023-05-17T01:24:06;9.23;;;4.37;;
14858;SDS011;7521;51.700;6.874;2023-05-17T01:27:14;10.80;;;4.80;;
14858;SDS011;7521;51.700;6.874;2023-05-17T01:30:19;12.67;;;4.57;;
14858;SDS011;7521;51.700;6.874;2023-05-17T01:33:26;8.60;;;4.20;;
14858;SDS011;7521;51.700;6.874;2023-05-17T01:36:32;9.33;;;4.60;;
14858;SDS011;7521;51.700;6.874;2023-05-17T01:39:37;11.63;;;4.88;;
14858;SDS011;7521;51.700;6.874;2023-05-17T01:42:42;10.67;;;5.23;;
14858;SDS011;7521;51.700;6.874;2023-05-17T01:45:52;11.67;;;4.33;;
14858;SDS011;7521;51.700;6.874;2023-05-17T01:49:20;9.73;;;3.80;;
14858;SDS011;7521;51.700;6.874;2023-05-17T01:52:28;7.23;;;3.97;;
14858;SDS011;7521;51.700;6.874;2023-05-17T01:55:46;13.13;;;4.80;;
14858;SDS011;7521;51.700;6.874;2023-05-17T01:58:53;10.27;;;4.60;;
14858;SDS011;7521;51.700;6.874;2023-05-17T02:02:03;15.47;;;5.80;;
14858;SDS011;7521;51.700;6.874;2023-05-17T02:05:12;7.53;;;4.23;;
14858;SDS011;7521;51.700;6.874;2023-05-17T02:08:18;8.60;;;4.30;;
14858;SDS011;7521;51.700;6.874;2023-05-17T02:11:23;8.50;;;4.32;;
14858;SDS011;7521;51.700;6.874;2023-05-17T02:14:28;12.90;;;4.25;;
14858;SDS011;7521;51.700;6.874;2023-05-17T02:17:33;6.67;;;4.20;;
14858;SDS011;7521;51.700;6.874;2023-05-17T02:20:39;10.20;;;4.20;;
14858;SDS011;7521;51.700;6.874;2023-05-17T02:23:45;8.33;;;4.40;;
14858;SDS011;7521;51.700;6.874;2023-05-17T02:26:50;9.20;;;4.43;;
14858;SDS011;7521;51.700;6.874;2023-05-17T02:29:55;11.47;;;4.40;;
14858;SDS011;7521;51.700;6.874;2023-05-17T02:33:00;10.23;;;4.80;;
14858;SDS011;7521;51.700;6.874;2023-05-17T02:36:06;9.30;;;3.92;;
14858;SDS011;7521;51.700;6.874;2023-05-17T02:39:11;10.67;;;4.10;;
14858;SDS011;7521;51.700;6.874;2023-05-17T02:42:16;16.83;;;5.60;;
14858;SDS011;7521;51.700;6.874;2023-05-17T02:45:21;14.50;;;5.17;;
14858;SDS011;7521;51.700;6.874;2023-05-17T02:48:27;13.30;;;5.03;;
14858;SDS011;7521;51.700;6.874;2023-05-17T02:51:32;16.70;;;5.05;;
14858;SDS011;7521;51.700;6.874;2023-05-17T02:54:37;17.40;;;5.47;;
14858;SDS011;7521;51.700;6.874;2023-05-17T02:57:42;17.58;;;5.78;;
14858;SDS011;7521;51.700;6.874;2023-05-17T03:00:47;15.23;;;5.95;;
14858;SDS011;7521;51.700;6.874;2023-05-17T03:03:52;12.43;;;5.45;;
14858;SDS011;7521;51.700;6.874;2023-05-17T03:06:58;19.63;;;5.70;;
14858;SDS011;7521;51.700;6.874;2023-05-17T03:10:03;19.57;;;6.60;;
14858;SDS011;7521;51.700;6.874;2023-05-17T03:13:08;12.27;;;6.27;;
14858;SDS011;7521;51.700;6.874;2023-05-17T03:16:13;12.23;;;6.00;;
14858;SDS011;7521;51.700;6.874;2023-05-17T03:19:18;15.48;;;5.70;;
14858;SDS011;7521;51.700;6.874;2023-05-17T03:22:24;21.37;;;6.27;;
14858;SDS011;7521;51.700;6.874;2023-05-17T03:25:29;12.77;;;5.77;;
14858;SDS011;7521;51.700;6.874;2023-05-17T03:28:34;21.70;;;6.90;;
14858;SDS011;7521;51.700;6.874;2023-05-17T03:31:39;21.83;;;6.75;;
14858;SDS011;7521;51.700;6.874;2023-05-17T03:34:45;19.02;;;7.05;;
14858;SDS011;7521;51.700;6.874;2023-05-17T03:37:50;16.17;;;6.07;;
14858;SDS011;7521;51.700;6.874;2023-05-17T03:40:55;20.60;;;6.53;;
14858;SDS011;7521;51.700;6.874;2023-05-17T03:44:00;21.93;;;6.83;;
14858;SDS011;7521;51.700;6.874;2023-05-17T03:47:05;18.00;;;6.23;;
14858;SDS011;7521;51.700;6.874;2023-05-17T03:50:11;27.30;;;7.20;;
14858;SDS011;7521;51.700;6.874;2023-05-17T03:53:16;14.20;;;6.33;;
14858;SDS011;7521;51.700;6.874;2023-05-17T03:56:21;14.50;;;6.17;;
14858;SDS011;7521;51.700;6.874;2023-05-17T03:59:26;18.58;;;7.00;;
14858;SDS011;7521;51.700;6.874;2023-05-17T04:02:31;17.92;;;6.80;;
14858;SDS011;7521;51.700;6.874;2023-05-17T04:05:38;17.80;;;6.45;;
14858;SDS011;7521;51.700;6.874;2023-05-17T04:08:43;22.43;;;6.87;;
14858;SDS011;7521;51.700;6.874;2023-05-17T04:11:48;17.93;;;6.40;;
14858;SDS011;7521;51.700;6.874;2023-05-17T04:14:53;18.43;;;6.50;;
14858;SDS011;7521;51.700;6.874;2023-05-17T04:17:58;15.30;;;6.07;;
14858;SDS011;7521;51.700;6.874;2023-05-17T04:21:04;19.67;;;6.45;;
14858;SDS011;7521;51.700;6.874;2023-05-17T04:24:09;17.27;;;5.73;;
14858;SDS011;7521;51.700;6.874;2023-05-17T04:27:14;14.77;;;6.07;;
14858;SDS011;7521;51.700;6.874;2023-05-17T04:30:20;16.60;;;5.87;;
14858;SDS011;7521;51.700;6.874;2023-05-17T04:33:25;15.27;;;6.27;;
14858;SDS011;7521;51.700;6.874;2023-05-17T04:36:31;17.00;;;6.57;;
14858;SDS011;7521;51.700;6.874;2023-05-17T04:39:36;17.03;;;6.43;;
14858;SDS011;7521;51.700;6.874;2023-05-17T04:42:41;19.33;;;7.63;;
14858;SDS011;7521;51.700;6.874;2023-05-17T04:45:46;19.02;;;6.70;;
14858;SDS011;7521;51.700;6.874;2023-05-17T04:48:52;20.40;;;6.90;;
14858;SDS011;7521;51.700;6.874;2023-05-17T04:51:57;16.55;;;6.63;;
14858;SDS011;7521;51.700;6.874;2023-05-17T04:55:02;19.17;;;6.90;;
14858;SDS011;7521;51.700;6.874;2023-05-17T04:58:09;18.00;;;8.10;;
14858;SDS011;7521;51.700;6.874;2023-05-17T05:01:14;15.90;;;6.40;;
14858;SDS011;7521;51.700;6.874;2023-05-17T05:04:19;19.53;;;6.90;;
14858;SDS011;7521;51.700;6.874;2023-05-17T05:07:24;13.48;;;7.03;;
14858;SDS011;7521;51.700;6.874;2023-05-17T05:10:30;16.73;;;6.88;;
14858;SDS011;7521;51.700;6.874;2023-05-17T05:13:35;19.63;;;7.07;;
14858;SDS011;7521;51.700;6.874;2023-05-17T05:16:42;14.50;;;6.63;;
14858;SDS011;7521;51.700;6.874;2023-05-17T05:19:48;21.73;;;7.33;;
14858;SDS011;7521;51.700;6.874;2023-05-17T05:22:53;19.45;;;6.50;;
14858;SDS011;7521;51.700;6.874;2023-05-17T05:25:58;22.23;;;6.47;;
14858;SDS011;7521;51.700;6.874;2023-05-17T05:29:03;18.27;;;7.32;;
14858;SDS011;7521;51.700;6.874;2023-05-17T05:32:08;15.70;;;6.47;;
14858;SDS011;7521;51.700;6.874;2023-05-17T05:35:13;17.43;;;6.63;;
14858;SDS011;7521;51.700;6.874;2023-05-17T05:38:19;19.67;;;6.13;;
14858;SDS011;7521;51.700;6.874;2023-05-17T05:41:24;20.00;;;6.97;;
14858;SDS011;7521;51.700;6.874;2023-05-17T05:44:29;28.83;;;6.50;;
14858;SDS011;7521;51.700;6.874;2023-05-17T05:47:35;21.97;;;5.17;;
14858;SDS011;7521;51.700;6.874;2023-05-17T05:50:40;18.48;;;5.65;;
14858;SDS011;7521;51.700;6.874;2023-05-17T05:53:46;23.00;;;6.13;;
14858;SDS011;7521;51.700;6.874;2023-05-17T05:56:51;19.13;;;4.70;;
14858;SDS011;7521;51.700;6.874;2023-05-17T05:59:58;20.10;;;5.97;;
14858;SDS011;7521;51.700;6.874;2023-05-17T06:03:03;21.05;;;5.30;;
14858;SDS011;7521;51.700;6.874;2023-05-17T06:06:08;27.37;;;4.93;;
14858;SDS011;7521;51.700;6.874;2023-05-17T06:09:14;17.23;;;4.03;;
14858;SDS011;7521;51.700;6.874;2023-05-17T06:12:19;15.07;;;4.07;;
14858;SDS011;7521;51.700;6.874;2023-05-17T06:15:25;24.33;;;4.33;;
14858;SDS011;7521;51.700;6.874;2023-05-17T06:18:31;21.07;;;4.50;;
14858;SDS011;7521;51.700;6.874;2023-05-17T06:21:36;19.10;;;4.40;;
14858;SDS011;7521;51.700;6.874;2023-05-17T06:24:41;16.23;;;3.55;;
14858;SDS011;7521;51.700;6.874;2023-05-17T06:27:46;18.30;;;3.90;;
14858;SDS011;7521;51.700;6.874;2023-05-17T06:30:51;21.40;;;3.53;;
14858;SDS011;7521;51.700;6.874;2023-05-17T06:33:57;12.20;;;3.17;;
14858;SDS011;7521;51.700;6.874;2023-05-17T06:37:02;21.67;;;4.18;;
14858;SDS011;7521;51.700;6.874;2023-05-17T06:40:07;19.00;;;3.47;;
14858;SDS011;7521;51.700;6.874;2023-05-17T06:43:14;14.13;;;3.37;;
14858;SDS011;7521;51.700;6.874;2023-05-17T06:46:19;22.60;;;3.60;;
14858;SDS011;7521;51.700;6.874;2023-05-17T06:49:24;15.80;;;3.13;;
14858;SDS011;7521;51.700;6.874;2023-05-17T06:52:30;14.03;;;3.00;;
14858;SDS011;7521;51.700;6.874;2023-05-17T06:55:35;18.65;;;3.10;;
14858;SDS011;7521;51.700;6.874;2023-05-17T06:58:40;15.67;;;2.63;;
14858;SDS011;7521;51.700;6.874;2023-05-17T07:01:45;12.30;;;3.43;;
14858;SDS011;7521;51.700;6.874;2023-05-17T07:04:50;14.30;;;2.90;;
14858;SDS011;7521;51.700;6.874;2023-05-17T07:07:59;15.27;;;2.70;;
14858;SDS011;7521;51.700;6.874;2023-05-17T07:11:04;14.87;;;2.57;;
14858;SDS011;7521;51.700;6.874;2023-05-17T07:14:09;20.25;;;3.05;;
14858;SDS011;7521;51.700;6.874;2023-05-17T07:17:14;10.88;;;2.05;;
14858;SDS011;7521;51.700;6.874;2023-05-17T07:20:19;11.93;;;2.90;;
14858;SDS011;7521;51.700;6.874;2023-05-17T07:23:24;9.90;;;2.53;;
14858;SDS011;7521;51.700;6.874;2023-05-17T07:26:30;15.73;;;3.53;;
14858;SDS011;7521;51.700;6.874;2023-05-17T07:29:35;11.37;;;2.60;;
14858;SDS011;7521;51.700;6.874;2023-05-17T07:32:41;13.23;;;2.70;;
14858;SDS011;7521;51.700;6.874;2023-05-17T07:35:46;14.93;;;2.27;;
14858;SDS011;7521;51.700;6.874;2023-05-17T07:38:51;14.57;;;2.90;;
14858;SDS011;7521;51.700;6.874;2023-05-17T07:41:56;13.07;;;2.92;;
14858;SDS011;7521;51.700;6.874;2023-05-17T07:45:02;12.88;;;2.63;;
14858;SDS011;7521;51.700;6.874;2023-05-17T07:48:07;13.60;;;3.03;;
14858;SDS011;7521;51.700;6.874;2023-05-17T07:51:12;11.95;;;2.67;;
14858;SDS011;7521;51.700;6.874;2023-05-17T07:54:21;17.15;;;2.42;;
14858;SDS011;7521;51.700;6.874;2023-05-17T07:57:27;15.93;;;3.07;;
14858;SDS011;7521;51.700;6.874;2023-05-17T08:00:32;13.07;;;2.30;;
14858;SDS011;7521;51.700;6.874;2023-05-17T08:03:37;13.20;;;3.05;;
14858;SDS011;7521;51.700;6.874;2023-05-17T08:06:43;11.30;;;2.47;;
14858;SDS011;7521;51.700;6.874;2023-05-17T08:09:50;10.80;;;2.33;;
14858;SDS011;7521;51.700;6.874;2023-05-17T08:12:55;11.45;;;2.28;;
14858;SDS011;7521;51.700;6.874;2023-05-17T08:16:01;11.45;;;2.35;;
14858;SDS011;7521;51.700;6.874;2023-05-17T08:19:09;11.43;;;3.03;;
14858;SDS011;7521;51.700;6.874;2023-05-17T08:22:16;12.83;;;2.70;;
14858;SDS011;7521;51.700;6.874;2023-05-17T08:25:24;14.07;;;2.47;;
14858;SDS011;7521;51.700;6.874;2023-05-17T08:28:29;15.07;;;2.30;;
14858;SDS011;7521;51.700;6.874;2023-05-17T08:31:34;13.18;;;2.67;;
14858;SDS011;7521;51.700;6.874;2023-05-17T08:34:39;12.52;;;2.20;;
14858;SDS011;7521;51.700;6.874;2023-05-17T08:37:53;10.95;;;2.10;;
14858;SDS011;7521;51.700;6.874;2023-05-17T08:40:59;15.10;;;3.10;;
14858;SDS011;7521;51.700;6.874;2023-05-17T08:44:06;7.70;;;2.03;;
14858;SDS011;7521;51.700;6.874;2023-05-17T08:47:11;16.50;;;3.27;;
14858;SDS011;7521;51.700;6.874;2023-05-17T08:50:17;10.33;;;2.60;;
14858;SDS011;7521;51.700;6.874;2023-05-17T08:53:22;10.70;;;2.08;;
14858;SDS011;7521;51.700;6.874;2023-05-17T08:56:28;6.53;;;2.37;;
14858;SDS011;7521;51.700;6.874;2023-05-17T09:03:02;8.30;;;1.50;;
14858;SDS011;7521;51.700;6.874;2023-05-17T09:06:07;10.87;;;1.80;;
14858;SDS011;7521;51.700;6.874;2023-05-17T09:09:13;9.40;;;1.50;;
14858;SDS011;7521;51.700;6.874;2023-05-17T09:12:19;9.43;;;2.07;;
14858;SDS011;7521;51.700;6.874;2023-05-17T09:15:25;8.67;;;2.60;;
14858;SDS011;7521;51.700;6.874;2023-05-17T09:18:31;6.17;;;2.00;;
14858;SDS011;7521;51.700;6.874;2023-05-17T09:21:36;12.47;;;2.60;;
14858;SDS011;7521;51.700;6.874;2023-05-17T09:24:41;10.27;;;1.70;;
14858;SDS011;7521;51.700;6.874;2023-05-17T09:27:47;10.70;;;2.30;;
14858;SDS011;7521;51.700;6.874;2023-05-17T09:30:52;8.40;;;1.77;;
14858;SDS011;7521;51.700;6.874;2023-05-17T09:34:00;11.20;;;1.92;;
14858;SDS011;7521;51.700;6.874;2023-05-17T09:37:15;9.63;;;1.63;;
14858;SDS011;7521;51.700;6.874;2023-05-17T09:40:22;5.40;;;1.40;;
14858;SDS011;7521;51.700;6.874;2023-05-17T09:43:27;7.13;;;1.57;;
14858;SDS011;7521;51.700;6.874;2023-05-17T09:46:33;11.77;;;2.10;;
14858;SDS011;7521;51.700;6.874;2023-05-17T09:49:38;5.77;;;1.73;;
14858;SDS011;7521;51.700;6.874;2023-05-17T09:52:44;8.82;;;1.60;;
14858;SDS011;7521;51.700;6.874;2023-05-17T09:55:50;9.20;;;2.20;;
14858;SDS011;7521;51.700;6.874;2023-05-17T09:58:56;9.20;;;1.80;;
14858;SDS011;7521;51.700;6.874;2023-05-17T10:02:03;4.80;;;1.30;;
14858;SDS011;7521;51.700;6.874;2023-05-17T10:05:10;7.13;;;1.70;;
14858;SDS011;7521;51.700;6.874;2023-05-17T10:08:16;12.93;;;1.90;;
14858;SDS011;7521;51.700;6.874;2023-05-17T10:11:23;8.27;;;1.83;;
14858;SDS011;7521;51.700;6.874;2023-05-17T10:14:30;9.10;;;1.57;;
14858;SDS011;7521;51.700;6.874;2023-05-17T10:17:36;8.73;;;1.97;;
14858;SDS011;7521;51.700;6.874;2023-05-17T10:20:45;7.57;;;1.70;;
14858;SDS011;7521;51.700;6.874;2023-05-17T10:23:51;6.03;;;1.80;;
14858;SDS011;7521;51.700;6.874;2023-05-17T10:26:57;8.07;;;2.00;;
14858;SDS011;7521;51.700;6.874;2023-05-17T10:30:03;7.93;;;1.50;;
14858;SDS011;7521;51.700;6.874;2023-05-17T10:33:10;7.40;;;1.73;;
14858;SDS011;7521;51.700;6.874;2023-05-17T10:36:17;6.80;;;1.33;;
14858;SDS011;7521;51.700;6.874;2023-05-17T10:39:22;7.20;;;1.40;;
14858;SDS011;7521;51.700;6.874;2023-05-17T10:42:28;10.53;;;1.60;;
14858;SDS011;7521;51.700;6.874;2023-05-17T10:45:35;13.57;;;2.40;;
14858;SDS011;7521;51.700;6.874;2023-05-17T10:48:41;8.40;;;2.10;;
14858;SDS011;7521;51.700;6.874;2023-05-17T10:51:46;6.27;;;1.33;;
14858;SDS011;7521;51.700;6.874;2023-05-17T10:54:51;6.82;;;1.50;;
14858;SDS011;7521;51.700;6.874;2023-05-17T11:01:46;5.93;;;1.83;;
14858;SDS011;7521;51.700;6.874;2023-05-17T11:04:40;10.70;;;1.70;;
14858;SDS011;7521;51.700;6.874;2023-05-17T11:07:45;8.80;;;1.90;;
14858;SDS011;7521;51.700;6.874;2023-05-17T11:14:14;9.33;;;2.10;;
14858;SDS011;7521;51.700;6.874;2023-05-17T11:17:33;10.65;;;1.70;;
14858;SDS011;7521;51.700;6.874;2023-05-17T11:20:38;7.17;;;1.63;;
14858;SDS011;7521;51.700;6.874;2023-05-17T11:23:44;8.60;;;1.90;;
14858;SDS011;7521;51.700;6.874;2023-05-17T11:26:49;6.07;;;1.70;;
14858;SDS011;7521;51.700;6.874;2023-05-17T11:29:55;5.53;;;1.80;;
14858;SDS011;7521;51.700;6.874;2023-05-17T11:36:05;6.28;;;2.17;;
14858;SDS011;7521;51.700;6.874;2023-05-17T11:39:21;8.07;;;1.80;;
14858;SDS011;7521;51.700;6.874;2023-05-17T11:42:26;7.10;;;1.97;;
14858;SDS011;7521;51.700;6.874;2023-05-17T11:45:41;7.77;;;1.93;;
14858;SDS011;7521;51.700;6.874;2023-05-17T11:48:48;9.63;;;1.87;;
14858;SDS011;7521;51.700;6.874;2023-05-17T11:51:54;7.33;;;1.77;;
14858;SDS011;7521;51.700;6.874;2023-05-17T11:54:59;6.23;;;1.60;;
14858;SDS011;7521;51.700;6.874;2023-05-17T11:58:05;12.37;;;1.93;;
14858;SDS011;7521;51.700;6.874;2023-05-17T12:01:11;8.43;;;1.53;;
14858;SDS011;7521;51.700;6.874;2023-05-17T12:04:23;7.88;;;2.30;;
14858;SDS011;7521;51.700;6.874;2023-05-17T12:07:29;3.70;;;1.40;;
14858;SDS011;7521;51.700;6.874;2023-05-17T12:10:34;11.80;;;2.03;;
14858;SDS011;7521;51.700;6.874;2023-05-17T12:13:39;7.32;;;1.67;;
14858;SDS011;7521;51.700;6.874;2023-05-17T12:16:48;7.83;;;1.77;;
14858;SDS011;7521;51.700;6.874;2023-05-17T12:19:54;6.80;;;1.70;;
14858;SDS011;7521;51.700;6.874;2023-05-17T12:22:59;8.70;;;1.80;;
14858;SDS011;7521;51.700;6.874;2023-05-17T12:29:10;5.97;;;2.03;;
14858;SDS011;7521;51.700;6.874;2023-05-17T12:32:15;6.17;;;1.43;;
14858;SDS011;7521;51.700;6.874;2023-05-17T12:35:21;10.33;;;2.27;;
14858;SDS011;7521;51.700;6.874;2023-05-17T12:38:26;7.47;;;1.47;;
14858;SDS011;7521;51.700;6.874;2023-05-17T12:41:32;6.87;;;2.00;;
14858;SDS011;7521;51.700;6.874;2023-05-17T12:44:37;6.30;;;2.00;;
14858;SDS011;7521;51.700;6.874;2023-05-17T12:47:43;7.13;;;2.00;;
14858;SDS011;7521;51.700;6.874;2023-05-17T12:50:48;10.63;;;2.00;;
14858;SDS011;7521;51.700;6.874;2023-05-17T12:53:55;9.47;;;2.20;;
14858;SDS011;7521;51.700;6.874;2023-05-17T12:57:11;12.60;;;2.07;;
14858;SDS011;7521;51.700;6.874;2023-05-17T13:00:18;7.40;;;2.03;;
14858;SDS011;7521;51.700;6.874;2023-05-17T13:03:23;7.60;;;1.90;;
14858;SDS011;7521;51.700;6.874;2023-05-17T13:06:28;6.87;;;2.10;;
14858;SDS011;7521;51.700;6.874;2023-05-17T13:09:46;8.50;;;2.30;;
14858;SDS011;7521;51.700;6.874;2023-05-17T13:12:55;8.83;;;2.20;;
14858;SDS011;7521;51.700;6.874;2023-05-17T13:16:01;11.60;;;2.90;;
14858;SDS011;7521;51.700;6.874;2023-05-17T13:19:12;8.73;;;2.30;;
14858;SDS011;7521;51.700;6.874;2023-05-17T13:22:17;6.73;;;1.70;;
14858;SDS011;7521;51.700;6.874;2023-05-17T13:25:23;9.23;;;2.40;;
14858;SDS011;7521;51.700;6.874;2023-05-17T13:28:28;7.05;;;2.35;;
14858;SDS011;7521;51.700;6.874;2023-05-17T13:31:33;10.43;;;2.17;;
14858;SDS011;7521;51.700;6.874;2023-05-17T13:34:38;8.80;;;2.10;;
14858;SDS011;7521;51.700;6.874;2023-05-17T13:37:44;12.00;;;2.13;;
14858;SDS011;7521;51.700;6.874;2023-05-17T13:40:49;10.27;;;2.33;;
14858;SDS011;7521;51.700;6.874;2023-05-17T13:43:55;7.97;;;2.40;;
14858;SDS011;7521;51.700;6.874;2023-05-17T13:47:01;10.20;;;2.73;;
14858;SDS011;7521;51.700;6.874;2023-05-17T13:50:06;11.68;;;2.42;;
14858;SDS011;7521;51.700;6.874;2023-05-17T13:53:11;14.90;;;2.67;;
14858;SDS011;7521;51.700;6.874;2023-05-17T13:56:17;8.40;;;2.17;;
14858;SDS011;7521;51.700;6.874;2023-05-17T13:59:22;12.18;;;2.65;;
14858;SDS011;7521;51.700;6.874;2023-05-17T14:02:27;12.27;;;2.95;;
14858;SDS011;7521;51.700;6.874;2023-05-17T14:05:32;9.57;;;2.45;;
14858;SDS011;7521;51.700;6.874;2023-05-17T14:08:40;7.67;;;2.60;;
14858;SDS011;7521;51.700;6.874;2023-05-17T14:11:45;10.35;;;2.22;;
14858;SDS011;7521;51.700;6.874;2023-05-17T14:14:50;9.10;;;1.97;;
14858;SDS011;7521;51.700;6.874;2023-05-17T14:17:55;8.30;;;2.10;;
14858;SDS011;7521;51.700;6.874;2023-05-17T14:21:01;12.10;;;2.40;;
14858;SDS011;7521;51.700;6.874;2023-05-17T14:24:07;5.33;;;2.10;;
14858;SDS011;7521;51.700;6.874;2023-05-17T14:27:12;12.40;;;2.90;;
14858;SDS011;7521;51.700;6.874;2023-05-17T14:30:18;8.20;;;2.38;;
14858;SDS011;7521;51.700;6.874;2023-05-17T14:33:23;10.20;;;2.77;;
14858;SDS011;7521;51.700;6.874;2023-05-17T14:36:29;8.73;;;2.33;;
14858;SDS011;7521;51.700;6.874;2023-05-17T14:39:35;8.63;;;2.50;;
14858;SDS011;7521;51.700;6.874;2023-05-17T14:42:40;7.35;;;2.15;;
14858;SDS011;7521;51.700;6.874;2023-05-17T14:45:46;11.50;;;2.43;;
14858;SDS011;7521;51.700;6.874;2023-05-17T14:48:51;10.73;;;2.33;;
14858;SDS011;7521;51.700;6.874;2023-05-17T14:51:56;9.63;;;2.37;;
14858;SDS011;7521;51.700;6.874;2023-05-17T14:55:02;13.20;;;3.00;;
14858;SDS011;7521;51.700;6.874;2023-05-17T14:58:08;13.37;;;3.10;;
14858;SDS011;7521;51.700;6.874;2023-05-17T15:01:15;9.37;;;2.50;;
14858;SDS011;7521;51.700;6.874;2023-05-17T15:04:21;9.07;;;2.13;;
14858;SDS011;7521;51.700;6.874;2023-05-17T15:07:26;12.23;;;2.80;;
14858;SDS011;7521;51.700;6.874;2023-05-17T15:10:32;11.87;;;2.90;;
14858;SDS011;7521;51.700;6.874;2023-05-17T15:13:37;14.20;;;2.60;;
14858;SDS011;7521;51.700;6.874;2023-05-17T15:16:42;9.55;;;2.72;;
14858;SDS011;7521;51.700;6.874;2023-05-17T15:19:48;9.53;;;2.37;;
14858;SDS011;7521;51.700;6.874;2023-05-17T15:22:53;9.83;;;2.50;;
14858;SDS011;7521;51.700;6.874;2023-05-17T15:25:58;9.53;;;2.83;;
14858;SDS011;7521;51.700;6.874;2023-05-17T15:29:03;11.25;;;2.28;;
14858;SDS011;7521;51.700;6.874;2023-05-17T15:32:08;8.82;;;2.50;;
14858;SDS011;7521;51.700;6.874;2023-05-17T15:35:14;8.83;;;2.40;;
14858;SDS011;7521;51.700;6.874;2023-05-17T15:38:19;10.87;;;2.93;;
14858;SDS011;7521;51.700;6.874;2023-05-17T15:41:24;13.20;;;2.53;;
14858;SDS011;7521;51.700;6.874;2023-05-17T15:44:31;6.17;;;2.10;;
14858;SDS011;7521;51.700;6.874;2023-05-17T15:47:36;11.93;;;2.90;;
14858;SDS011;7521;51.700;6.874;2023-05-17T15:50:41;12.10;;;2.87;;
14858;SDS011;7521;51.700;6.874;2023-05-17T15:53:46;8.05;;;2.63;;
14858;SDS011;7521;51.700;6.874;2023-05-17T15:56:52;10.07;;;2.77;;
14858;SDS011;7521;51.700;6.874;2023-05-17T15:59:57;9.88;;;2.30;;
14858;SDS011;7521;51.700;6.874;2023-05-17T16:03:02;11.50;;;2.95;;
14858;SDS011;7521;51.700;6.874;2023-05-17T16:06:08;13.97;;;2.67;;
14858;SDS011;7521;51.700;6.874;2023-05-17T16:09:13;12.93;;;2.57;;
14858;SDS011;7521;51.700;6.874;2023-05-17T16:12:18;8.37;;;2.00;;
14858;SDS011;7521;51.700;6.874;2023-05-17T16:15:23;10.67;;;2.27;;
14858;SDS011;7521;51.700;6.874;2023-05-17T16:18:28;11.82;;;2.42;;
14858;SDS011;7521;51.700;6.874;2023-05-17T16:21:34;9.80;;;2.70;;
14858;SDS011;7521;51.700;6.874;2023-05-17T16:24:39;13.15;;;2.65;;
14858;SDS011;7521;51.700;6.874;2023-05-17T16:27:46;14.03;;;2.73;;
14858;SDS011;7521;51.700;6.874;2023-05-17T16:30:51;11.43;;;2.30;;
14858;SDS011;7521;51.700;6.874;2023-05-17T16:33:56;10.10;;;2.97;;
14858;SDS011;7521;51.700;6.874;2023-05-17T16:37:02;14.40;;;3.10;;
14858;SDS011;7521;51.700;6.874;2023-05-17T16:40:09;10.93;;;2.73;;
14858;SDS011;7521;51.700;6.874;2023-05-17T16:43:14;8.93;;;2.53;;
14858;SDS011;7521;51.700;6.874;2023-05-17T16:46:20;10.67;;;2.43;;
14858;SDS011;7521;51.700;6.874;2023-05-17T16:49:28;10.93;;;3.07;;
14858;SDS011;7521;51.700;6.874;2023-05-17T16:52:34;9.27;;;2.40;;
14858;SDS011;7521;51.700;6.874;2023-05-17T16:55:39;11.30;;;2.73;;
14858;SDS011;7521;51.700;6.874;2023-05-17T16:58:45;11.63;;;3.20;;
14858;SDS011;7521;51.700;6.874;2023-05-17T17:01:51;24.13;;;14.57;;
14858;SDS011;7521;51.700;6.874;2023-05-17T17:04:56;11.15;;;3.30;;
14858;SDS011;7521;51.700;6.874;2023-05-17T17:08:02;11.27;;;2.80;;
14858;SDS011;7521;51.700;6.874;2023-05-17T17:11:07;7.53;;;2.42;;
14858;SDS011;7521;51.700;6.874;2023-05-17T17:14:12;14.47;;;2.73;;
14858;SDS011;7521;51.700;6.874;2023-05-17T17:17:18;9.73;;;2.30;;
14858;SDS011;7521;51.700;6.874;2023-05-17T17:20:23;10.07;;;2.47;;
14858;SDS011;7521;51.700;6.874;2023-05-17T17:23:28;9.37;;;2.13;;
14858;SDS011;7521;51.700;6.874;2023-05-17T17:26:34;8.82;;;2.60;;
14858;SDS011;7521;51.700;6.874;2023-05-17T17:29:39;8.53;;;2.50;;
14858;SDS011;7521;51.700;6.874;2023-05-17T17:32:44;8.75;;;2.10;;
14858;SDS011;7521;51.700;6.874;2023-05-17T17:35:49;10.17;;;2.27;;
14858;SDS011;7521;51.700;6.874;2023-05-17T17:38:55;7.25;;;2.47;;
14858;SDS011;7521;51.700;6.874;2023-05-17T17:42:00;8.30;;;2.33;;
14858;SDS011;7521;51.700;6.874;2023-05-17T17:45:05;6.43;;;2.10;;
14858;SDS011;7521;51.700;6.874;2023-05-17T17:48:11;10.50;;;2.10;;
14858;SDS011;7521;51.700;6.874;2023-05-17T17:51:16;9.57;;;2.20;;
14858;SDS011;7521;51.700;6.874;2023-05-17T17:54:21;9.48;;;2.00;;
14858;SDS011;7521;51.700;6.874;2023-05-17T17:57:26;10.67;;;2.20;;
14858;SDS011;7521;51.700;6.874;2023-05-17T18:00:32;7.28;;;2.17;;
14858;SDS011;7521;51.700;6.874;2023-05-17T18:03:37;9.50;;;2.40;;
14858;SDS011;7521;51.700;6.874;2023-05-17T18:06:42;7.43;;;2.00;;
14858;SDS011;7521;51.700;6.874;2023-05-17T18:09:49;7.37;;;2.23;;
14858;SDS011;7521;51.700;6.874;2023-05-17T18:12:55;5.87;;;2.10;;
14858;SDS011;7521;51.700;6.874;2023-05-17T18:16:01;7.10;;;2.00;;
14858;SDS011;7521;51.700;6.874;2023-05-17T18:19:06;6.83;;;2.07;;
14858;SDS011;7521;51.700;6.874;2023-05-17T18:22:11;7.47;;;1.77;;
14858;SDS011;7521;51.700;6.874;2023-05-17T18:25:16;8.83;;;2.50;;
14858;SDS011;7521;51.700;6.874;2023-05-17T18:28:22;8.93;;;2.33;;
14858;SDS011;7521;51.700;6.874;2023-05-17T18:31:27;9.88;;;2.50;;
14858;SDS011;7521;51.700;6.874;2023-05-17T18:34:32;7.30;;;1.90;;
14858;SDS011;7521;51.700;6.874;2023-05-17T18:37:37;9.37;;;2.13;;
14858;SDS011;7521;51.700;6.874;2023-05-17T18:40:42;8.90;;;2.58;;
14858;SDS011;7521;51.700;6.874;2023-05-17T18:43:48;7.10;;;1.70;;
14858;SDS011;7521;51.700;6.874;2023-05-17T18:46:53;8.80;;;1.87;;
14858;SDS011;7521;51.700;6.874;2023-05-17T18:49:58;8.83;;;1.97;;
14858;SDS011;7521;51.700;6.874;2023-05-17T18:53:03;9.73;;;2.10;;
14858;SDS011;7521;51.700;6.874;2023-05-17T18:56:09;9.90;;;2.27;;
14858;SDS011;7521;51.700;6.874;2023-05-17T18:59:14;8.33;;;2.00;;
14858;SDS011;7521;51.700;6.874;2023-05-17T19:02:20;8.47;;;1.57;;
14858;SDS011;7521;51.700;6.874;2023-05-17T19:05:25;10.60;;;2.40;;
14858;SDS011;7521;51.700;6.874;2023-05-17T19:08:30;10.05;;;2.55;;